createdAt,value
2019-03-16T00:00:39.399Z,12.10
2019-03-16T00:06:41.766Z,12.10
2019-03-16T00:12:43.887Z,12.20
2019-03-16T00:18:46.174Z,12.10
2019-03-16T00:24:48.415Z,12.20
2019-03-16T00:30:50.747Z,12.30
2019-03-16T00:36:52.885Z,12.30
2019-03-16T00:42:55.291Z,12.30
2019-03-16T00:48:57.571Z,12.30
2019-03-16T00:54:59.760Z,12.40
2019-03-16T01:01:01.895Z,12.40
2019-03-16T01:07:05.043Z,12.40
2019-03-16T01:13:07.519Z,12.30
2019-03-16T01:19:09.699Z,12.20
2019-03-16T01:25:12.718Z,12.10
2019-03-16T01:31:14.845Z,12.10
2019-03-16T01:37:16.983Z,12.20
2019-03-16T01:43:19.240Z,12.30
2019-03-16T01:49:21.608Z,12.40
2019-03-16T01:55:23.779Z,12.30
2019-03-16T02:01:26.094Z,12.30
2019-03-16T02:07:28.368Z,12.20
2019-03-16T02:13:30.507Z,12.10
2019-03-16T02:19:35.908Z,12.00
2019-03-16T02:25:38.040Z,12.00
2019-03-16T02:31:40.178Z,11.90
2019-03-16T02:37:42.444Z,11.80
2019-03-16T02:43:47.521Z,11.90
2019-03-16T02:49:50.800Z,11.90
2019-03-16T02:55:54.223Z,11.80
2019-03-16T03:01:56.457Z,11.60
2019-03-16T03:07:58.901Z,11.50
2019-03-16T03:14:01.146Z,11.40
2019-03-16T03:20:03.887Z,11.40
2019-03-16T03:26:06.540Z,11.40
2019-03-16T03:32:08.788Z,11.40
2019-03-16T03:38:11.027Z,11.30
2019-03-16T03:44:13.223Z,11.30
2019-03-16T03:50:15.541Z,11.30
2019-03-16T03:56:17.845Z,11.30
2019-03-16T04:02:20.018Z,11.40
2019-03-16T04:08:22.209Z,11.40
2019-03-16T04:14:24.372Z,11.40
2019-03-16T04:20:26.613Z,11.50
2019-03-16T04:26:29.036Z,11.50
2019-03-16T04:32:31.323Z,11.60
2019-03-16T04:38:33.444Z,11.60
2019-03-16T04:44:35.568Z,11.60
2019-03-16T04:50:37.968Z,11.60
2019-03-16T04:56:40.201Z,11.50
2019-03-16T05:02:42.343Z,11.50
2019-03-16T05:08:44.479Z,11.40
2019-03-16T05:14:46.729Z,11.30
2019-03-16T05:20:49.999Z,11.30
2019-03-16T05:26:52.419Z,11.30
2019-03-16T05:32:55.875Z,11.30
2019-03-16T05:38:58.110Z,11.30
2019-03-16T05:45:00.372Z,11.30
2019-03-16T05:51:02.652Z,11.20
2019-03-16T05:57:05.015Z,11.20
2019-03-16T06:03:07.177Z,11.20
2019-03-16T06:09:09.330Z,11.30
2019-03-16T06:15:11.597Z,11.30
2019-03-16T06:21:13.726Z,11.40
2019-03-16T06:27:17.560Z,11.40
2019-03-16T06:33:19.756Z,11.40
2019-03-16T06:39:22.045Z,11.40
2019-03-16T06:45:24.504Z,11.40
2019-03-16T06:51:26.935Z,11.50
2019-03-16T06:57:29.161Z,11.40
2019-03-16T07:03:31.498Z,11.50
2019-03-16T07:09:33.728Z,11.50
2019-03-16T07:15:36.303Z,11.50
2019-03-16T07:21:38.528Z,11.50
2019-03-16T07:27:40.727Z,11.50
2019-03-16T07:33:42.998Z,11.60
2019-03-16T07:39:45.303Z,11.60
2019-03-16T07:45:47.594Z,11.60
2019-03-16T07:51:49.887Z,11.70
2019-03-16T07:57:52.168Z,11.80
2019-03-16T08:03:54.282Z,11.90
2019-03-16T08:09:56.475Z,12.00
2019-03-16T08:15:58.679Z,12.00
2019-03-16T08:22:00.884Z,12.10
2019-03-16T08:28:03.164Z,12.20
2019-03-16T08:34:05.431Z,12.30
2019-03-16T08:40:07.975Z,12.40
2019-03-16T08:46:10.204Z,12.50
2019-03-16T08:52:12.421Z,12.50
2019-03-16T08:58:14.640Z,12.50
2019-03-16T09:04:16.911Z,12.40
2019-03-16T09:10:19.055Z,12.30
2019-03-16T09:16:21.168Z,12.40
2019-03-16T09:22:24.751Z,12.50
2019-03-16T09:28:27.099Z,12.50
2019-03-16T09:34:29.490Z,12.60
2019-03-16T09:40:34.425Z,12.60
2019-03-16T09:46:36.613Z,12.70
2019-03-16T09:52:39.250Z,12.70
2019-03-16T09:58:41.402Z,12.90
2019-03-16T10:10:45.839Z,13.00
2019-03-16T10:16:48.183Z,13.10
2019-03-16T10:22:50.363Z,13.10
2019-03-16T10:28:52.608Z,13.10
2019-03-16T10:34:54.899Z,13.10
2019-03-16T10:40:57.271Z,13.10
2019-03-16T10:46:59.682Z,13.00
2019-03-16T10:53:01.984Z,13.00
2019-03-16T10:59:04.459Z,13.10
2019-03-16T11:05:06.845Z,13.30
2019-03-16T11:11:09.515Z,13.30
2019-03-16T11:17:13.691Z,13.40
2019-03-16T11:23:15.816Z,13.60
2019-03-16T11:29:18.202Z,13.60
2019-03-16T11:35:20.617Z,13.50
2019-03-16T11:41:22.872Z,13.60
2019-03-16T11:47:25.294Z,13.70
2019-03-16T11:53:27.768Z,13.70
2019-03-16T11:59:29.975Z,13.80
2019-03-16T12:05:32.491Z,13.80
2019-03-16T12:11:34.942Z,13.80
2019-03-16T12:17:37.271Z,13.90
2019-03-16T12:23:39.564Z,14.10
2019-03-16T12:29:41.790Z,14.40
2019-03-16T12:35:43.970Z,14.80
2019-03-16T12:41:46.195Z,15.20
2019-03-16T12:47:48.535Z,15.50
2019-03-16T12:53:51.065Z,15.80
2019-03-16T12:59:53.256Z,16.00
2019-03-16T13:05:55.471Z,15.80
2019-03-16T13:11:58.870Z,15.80
2019-03-16T13:18:00.987Z,15.70
2019-03-16T13:24:06.153Z,15.60
2019-03-16T13:30:10.135Z,15.60
2019-03-16T13:36:12.584Z,15.70
2019-03-16T13:42:14.959Z,15.80
2019-03-16T13:48:17.252Z,16.00
2019-03-16T13:54:19.531Z,16.20
2019-03-16T14:00:21.824Z,16.40
2019-03-16T14:06:23.943Z,16.10
2019-03-16T14:12:26.495Z,15.90
2019-03-16T14:18:29.233Z,15.80
2019-03-16T14:24:31.354Z,16.00
2019-03-16T14:30:40.947Z,16.20
2019-03-16T14:36:38.223Z,16.60
2019-03-16T14:42:40.583Z,16.70
2019-03-16T14:48:42.805Z,16.60
2019-03-16T14:54:45.091Z,16.30
2019-03-16T15:00:47.404Z,15.80
2019-03-16T15:06:49.720Z,15.70
2019-03-16T15:12:52.061Z,15.50
2019-03-16T15:18:54.422Z,15.30
2019-03-16T15:24:56.702Z,15.20
2019-03-16T15:30:58.951Z,15.10
2019-03-16T15:37:01.083Z,15.00
2019-03-16T15:43:03.329Z,15.00
2019-03-16T15:49:05.537Z,15.00
2019-03-16T15:55:07.703Z,14.90
2019-03-16T16:01:09.928Z,14.80
2019-03-16T16:07:12.682Z,14.70
2019-03-16T16:13:14.813Z,14.60
2019-03-16T16:19:17.043Z,14.60
2019-03-16T16:25:19.702Z,14.50
2019-03-16T16:31:21.870Z,14.40
2019-03-16T16:37:24.238Z,14.30
2019-03-16T16:43:26.552Z,14.20
2019-03-16T16:49:32.211Z,14.20
2019-03-16T16:55:34.661Z,14.10
2019-03-16T17:01:37.187Z,14.10
2019-03-16T17:07:42.218Z,14.00
2019-03-16T17:13:44.952Z,13.90
2019-03-16T17:19:47.598Z,13.90
2019-03-16T17:25:49.891Z,13.80
2019-03-16T17:31:52.222Z,13.80
2019-03-16T17:37:54.371Z,13.70
2019-03-16T17:43:56.498Z,13.70
2019-03-16T17:49:58.695Z,13.60
2019-03-16T17:56:01.039Z,13.50
2019-03-16T18:02:03.268Z,13.40
2019-03-16T18:08:05.412Z,13.30
2019-03-16T18:14:07.525Z,13.20
2019-03-16T18:20:10.345Z,13.00
2019-03-16T18:26:12.750Z,13.00
2019-03-16T18:32:15.050Z,12.90
2019-03-16T18:38:17.473Z,12.80
2019-03-16T18:44:19.732Z,12.60
2019-03-16T18:50:22.235Z,12.30
2019-03-16T18:56:25.043Z,12.00
2019-03-16T19:02:27.385Z,11.60
2019-03-16T19:08:29.820Z,11.20
2019-03-16T19:14:32.307Z,10.90
2019-03-16T19:20:34.514Z,10.70
2019-03-16T19:26:36.977Z,10.40
2019-03-16T19:32:40.588Z,10.20
2019-03-16T19:38:42.994Z,9.80
2019-03-16T19:44:45.642Z,9.60
2019-03-16T19:50:47.816Z,9.40
2019-03-16T19:56:50.027Z,9.10
2019-03-16T20:02:54.536Z,9.00
2019-03-16T20:08:57.210Z,8.70
2019-03-16T20:14:59.415Z,8.40
2019-03-16T20:21:01.739Z,8.30
2019-03-16T20:27:03.969Z,8.20
2019-03-16T20:33:06.591Z,8.10
2019-03-16T20:39:09.097Z,7.90
2019-03-16T20:45:12.557Z,7.70
2019-03-16T20:51:14.882Z,7.50
2019-03-16T20:57:17.119Z,7.30
2019-03-16T21:03:19.399Z,7.20
2019-03-16T21:09:21.878Z,7.10
2019-03-16T21:15:24.104Z,7.10
2019-03-16T21:21:26.374Z,7.00
2019-03-16T21:27:28.834Z,7.00
2019-03-16T21:33:31.087Z,7.00
2019-03-16T21:39:39.505Z,6.90
2019-03-16T21:45:41.743Z,6.80
2019-03-16T21:51:44.034Z,6.70
2019-03-16T21:57:46.286Z,6.60
2019-03-16T22:03:48.500Z,6.50
2019-03-16T22:09:50.627Z,6.30
2019-03-16T22:15:52.873Z,6.20
2019-03-16T22:21:55.059Z,6.00
2019-03-16T22:27:57.127Z,6.00
2019-03-16T22:33:59.471Z,5.80
2019-03-16T22:40:01.730Z,5.80
2019-03-16T22:46:03.952Z,5.70
2019-03-16T22:52:06.288Z,5.70
2019-03-16T22:58:08.415Z,5.90
2019-03-16T23:04:10.647Z,5.90
2019-03-16T23:10:12.787Z,5.90
2019-03-16T23:16:14.946Z,5.80
2019-03-16T23:22:17.256Z,5.70
2019-03-16T23:28:19.453Z,5.70
2019-03-16T23:34:21.558Z,5.60
2019-03-16T23:40:23.944Z,5.60
2019-03-16T23:46:26.155Z,5.50
2019-03-16T23:52:28.259Z,5.50
2019-03-16T23:58:30.472Z,5.40
